createdAt,value
2019-02-22T00:01:17.915Z,99536.34
2019-02-22T00:03:26.047Z,99546.41
2019-02-22T00:05:33.109Z,99550.55
2019-02-22T00:07:40.193Z,99542.58
2019-02-22T00:09:49.658Z,99535.69
2019-02-22T00:11:57.284Z,99539.34
2019-02-22T00:14:04.897Z,99528.47
2019-02-22T00:16:17.582Z,99530.23
2019-02-22T00:18:36.369Z,99534.88
2019-02-22T00:20:54.250Z,99528.52
2019-02-22T00:23:18.818Z,99531.14
2019-02-22T00:25:26.118Z,99525.80
2019-02-22T00:27:33.345Z,99519.73
2019-02-22T00:29:45.616Z,99523.44
2019-02-22T00:31:52.850Z,99530.33
2019-02-22T00:34:00.747Z,99524.45
2019-02-22T00:36:08.256Z,99524.98
2019-02-22T00:38:15.461Z,99527.22
2019-02-22T00:40:22.924Z,99534.75
2019-02-22T00:42:30.381Z,99542.64
2019-02-22T00:44:38.093Z,99543.20
2019-02-22T00:46:45.413Z,99554.78
2019-02-22T00:48:52.688Z,99558.76
2019-02-22T00:50:59.916Z,99553.55
2019-02-22T00:53:07.871Z,99547.19
2019-02-22T00:55:15.772Z,99551.78
2019-02-22T00:57:23.000Z,99561.56
2019-02-22T00:59:30.496Z,99557.70
2019-02-22T01:01:58.914Z,99564.27
2019-02-22T01:06:58.225Z,99572.98
2019-02-22T01:09:14.695Z,99578.47
2019-02-22T01:11:34.580Z,99578.67
2019-02-22T01:13:48.359Z,99564.80
2019-02-22T01:16:10.494Z,99570.34
2019-02-22T01:22:04.095Z,99583.96
2019-02-22T01:24:28.232Z,99579.56
2019-02-22T01:29:14.291Z,99569.88
2019-02-22T01:31:29.622Z,99570.19
2019-02-22T01:33:45.566Z,99567.90
2019-02-22T01:35:52.790Z,99571.30
2019-02-22T01:38:00.888Z,99564.92
2019-02-22T01:40:08.335Z,99569.39
2019-02-22T01:42:34.970Z,99571.51
2019-02-22T01:44:45.567Z,99587.41
2019-02-22T01:46:53.075Z,99590.22
2019-02-22T01:49:00.682Z,99592.30
2019-02-22T01:51:08.117Z,99595.60
2019-02-22T01:55:30.256Z,99589.24
2019-02-22T01:57:37.297Z,99599.55
2019-02-22T01:59:44.668Z,99600.69
2019-02-22T02:01:52.287Z,99592.84
2019-02-22T02:03:59.771Z,99603.08
2019-02-22T02:06:06.820Z,99610.05
2019-02-22T02:08:16.803Z,99609.81
2019-02-22T02:10:32.250Z,99606.82
2019-02-22T02:12:49.488Z,99595.97
2019-02-22T02:14:56.597Z,99614.45
2019-02-22T02:17:17.708Z,99606.02
2019-02-22T02:19:37.432Z,99602.67
2019-02-22T02:21:45.016Z,99607.99
2019-02-22T02:23:52.514Z,99600.17
2019-02-22T02:26:01.152Z,99613.73
2019-02-22T02:28:08.956Z,99627.94
2019-02-22T02:30:34.257Z,99638.97
2019-02-22T02:33:26.633Z,99632.45
2019-02-22T02:35:33.983Z,99629.13
2019-02-22T02:37:48.883Z,99638.36
2019-02-22T02:40:24.203Z,99650.48
2019-02-22T02:42:57.432Z,99652.30
2019-02-22T02:45:06.042Z,99646.35
2019-02-22T02:47:34.015Z,99653.06
2019-02-22T02:50:10.702Z,99654.61
2019-02-22T02:52:18.486Z,99660.74
2019-02-22T02:54:25.620Z,99656.69
2019-02-22T02:56:55.849Z,99648.63
2019-02-22T02:59:04.580Z,99646.12
2019-02-22T03:01:12.551Z,99647.77
2019-02-22T03:03:35.211Z,99646.66
2019-02-22T03:06:00.274Z,99646.86
2019-02-22T03:08:07.335Z,99652.19
2019-02-22T03:10:14.585Z,99659.09
2019-02-22T03:12:21.918Z,99668.75
2019-02-22T03:14:29.758Z,99656.27
2019-02-22T03:16:37.799Z,99649.39
2019-02-22T03:18:44.977Z,99657.62
2019-02-22T03:20:57.616Z,99659.30
2019-02-22T03:23:11.932Z,99667.49
2019-02-22T03:25:19.601Z,99663.94
2019-02-22T03:27:44.645Z,99662.12
2019-02-22T03:29:56.620Z,99664.91
2019-02-22T03:32:07.225Z,99669.36
2019-02-22T03:34:25.777Z,99678.30
2019-02-22T03:36:36.411Z,99688.20
2019-02-22T03:38:58.603Z,99688.89
2019-02-22T03:41:07.285Z,99684.34
2019-02-22T03:43:15.908Z,99686.24
2019-02-22T03:45:23.384Z,99685.77
2019-02-22T03:47:44.117Z,99668.86
2019-02-22T03:49:59.911Z,99674.69
2019-02-22T03:52:27.964Z,99681.50
2019-02-22T03:54:35.134Z,99673.77
2019-02-22T03:56:42.545Z,99666.84
2019-02-22T03:58:50.923Z,99663.42
2019-02-22T04:00:59.800Z,99674.38
2019-02-22T04:03:07.101Z,99678.33
2019-02-22T04:05:16.534Z,99676.48
2019-02-22T04:07:24.507Z,99676.86
2019-02-22T04:09:40.893Z,99690.45
2019-02-22T04:11:56.563Z,99693.20
2019-02-22T04:14:07.088Z,99699.78
2019-02-22T04:16:27.919Z,99697.98
2019-02-22T04:18:43.465Z,99689.64
2019-02-22T04:20:51.368Z,99687.27
2019-02-22T04:23:03.523Z,99679.44
2019-02-22T04:25:10.818Z,99685.16
2019-02-22T04:27:21.555Z,99688.63
2019-02-22T04:29:36.859Z,99691.41
2019-02-22T04:31:45.105Z,99691.67
2019-02-22T04:33:57.436Z,99697.65
2019-02-22T04:36:04.825Z,99698.02
2019-02-22T04:38:14.419Z,99705.02
2019-02-22T04:40:40.943Z,99706.63
2019-02-22T04:43:16.811Z,99706.97
2019-02-22T04:45:35.684Z,99704.23
2019-02-22T04:47:57.661Z,99705.33
2019-02-22T04:50:10.525Z,99708.30
2019-02-22T04:52:30.193Z,99699.69
2019-02-22T04:54:42.532Z,99718.08
2019-02-22T04:57:08.068Z,99718.72
2019-02-22T04:59:31.324Z,99717.70
2019-02-22T05:01:44.918Z,99725.86
2019-02-22T05:04:10.398Z,99731.39
2019-02-22T05:06:21.726Z,99730.67
2019-02-22T05:08:36.610Z,99727.63
2019-02-22T05:10:46.425Z,99730.67
2019-02-22T05:12:56.951Z,99719.14
2019-02-22T05:15:12.650Z,99718.75
2019-02-22T05:17:18.218Z,99721.13
2019-02-22T05:19:37.691Z,99732.97
2019-02-22T05:21:52.433Z,99721.58
2019-02-22T05:24:06.829Z,99732.03
2019-02-22T05:26:30.388Z,99738.82
2019-02-22T05:28:42.006Z,99736.49
2019-02-22T05:30:59.733Z,99732.48
2019-02-22T05:33:20.296Z,99738.82
2019-02-22T05:35:39.983Z,99742.99
2019-02-22T05:37:54.399Z,99748.00
2019-02-22T05:40:08.385Z,99752.08
2019-02-22T05:42:46.612Z,99758.82
2019-02-22T05:44:56.535Z,99762.88
2019-02-22T05:47:45.965Z,99763.09
2019-02-22T05:50:11.191Z,99768.05
2019-02-22T05:51:39.015Z,99763.28
2019-02-22T05:53:48.184Z,99767.97
2019-02-22T05:58:47.277Z,99779.28
2019-02-22T06:00:54.713Z,99771.89
2019-02-22T06:03:32.215Z,99777.39
2019-02-22T06:05:45.348Z,99782.80
2019-02-22T06:08:04.282Z,99781.23
2019-02-22T06:10:13.723Z,99791.42
2019-02-22T06:12:34.284Z,99790.77
2019-02-22T06:14:41.704Z,99793.82
2019-02-22T06:16:58.298Z,99810.61
2019-02-22T06:20:12.425Z,99819.45
2019-02-22T06:21:18.799Z,99823.02
2019-02-22T06:23:30.770Z,99828.14
2019-02-22T06:25:38.073Z,99825.84
2019-02-22T06:27:45.466Z,99822.95
2019-02-22T06:29:52.867Z,99821.04
2019-02-22T06:32:00.055Z,99826.84
2019-02-22T06:34:08.152Z,99824.26
2019-02-22T06:36:34.619Z,99824.05
2019-02-22T06:38:50.166Z,99823.28
2019-02-22T06:41:17.907Z,99824.23
2019-02-22T06:44:50.446Z,99823.65
2019-02-22T06:46:21.441Z,99831.66
2019-02-22T06:48:39.765Z,99841.87
2019-02-22T06:50:51.217Z,99846.95
2019-02-22T06:53:01.779Z,99855.06
2019-02-22T06:55:11.213Z,99871.82
2019-02-22T06:57:22.863Z,99876.28
2019-02-22T06:59:37.074Z,99877.73
2019-02-22T07:01:50.940Z,99881.05
2019-02-22T07:04:27.210Z,99893.66
2019-02-22T07:06:42.622Z,99902.05
2019-02-22T07:08:59.222Z,99895.12
2019-02-22T07:11:15.451Z,99896.97
2019-02-22T07:13:24.512Z,99905.58
2019-02-22T07:15:31.971Z,99895.47
2019-02-22T07:17:39.357Z,99895.13
2019-02-22T07:19:46.875Z,99892.06
2019-02-22T07:21:54.312Z,99887.39
2019-02-22T07:24:02.774Z,99893.83
2019-02-22T07:26:10.057Z,99889.67
2019-02-22T07:28:17.351Z,99891.80
2019-02-22T07:30:25.305Z,99895.36
2019-02-22T07:32:32.530Z,99891.86
2019-02-22T07:34:39.682Z,99907.55
2019-02-22T07:36:48.249Z,99903.78
2019-02-22T07:38:55.474Z,99901.55
2019-02-22T07:41:03.445Z,99905.12
2019-02-22T07:43:11.795Z,99907.03
2019-02-22T07:45:19.525Z,99911.02
2019-02-22T07:47:29.238Z,99916.22
2019-02-22T07:49:35.907Z,99918.27
2019-02-22T07:51:43.291Z,99913.48
2019-02-22T07:53:50.525Z,99908.89
2019-02-22T07:55:57.738Z,99904.23
2019-02-22T07:58:05.074Z,99904.33
2019-02-22T08:00:14.662Z,99906.64
2019-02-22T08:02:22.873Z,99917.04
2019-02-22T08:04:30.399Z,99923.18
2019-02-22T08:06:37.698Z,99923.13
2019-02-22T08:08:47.789Z,99917.59
2019-02-22T08:10:54.381Z,99921.22
2019-02-22T08:13:01.711Z,99926.16
2019-02-22T08:15:10.177Z,99921.48
2019-02-22T08:17:17.400Z,99926.95
2019-02-22T08:19:24.710Z,99924.57
2019-02-22T08:21:32.662Z,99927.63
2019-02-22T08:23:39.978Z,99929.48
2019-02-22T08:25:46.987Z,99936.52
2019-02-22T08:27:55.085Z,99935.94
2019-02-22T08:30:02.893Z,99937.19
2019-02-22T08:32:10.137Z,99944.52
2019-02-22T08:34:17.363Z,99919.55
2019-02-22T08:36:24.731Z,99939.70
2019-02-22T08:38:32.749Z,99937.94
2019-02-22T08:40:39.917Z,99943.41
2019-02-22T08:42:48.079Z,99934.06
2019-02-22T08:44:55.409Z,99939.05
2019-02-22T08:47:02.713Z,99950.14
2019-02-22T08:49:09.983Z,99953.05
2019-02-22T08:51:17.313Z,99949.64
2019-02-22T08:53:24.523Z,99953.59
2019-02-22T08:55:31.702Z,99949.72
2019-02-22T08:57:38.750Z,99948.66
2019-02-22T08:59:45.785Z,99952.64
2019-02-22T09:01:53.168Z,99945.15
2019-02-22T09:04:00.455Z,99943.20
2019-02-22T09:06:07.848Z,99940.59
2019-02-22T09:08:16.335Z,99945.24
2019-02-22T09:10:23.560Z,99952.16
2019-02-22T09:12:31.153Z,99950.68
2019-02-22T09:14:38.938Z,99958.98
2019-02-22T09:16:46.325Z,99971.11
2019-02-22T09:18:54.409Z,99983.35
2019-02-22T09:21:01.620Z,99996.30
2019-02-22T09:23:09.383Z,99999.26
2019-02-22T09:25:17.056Z,100001.70
2019-02-22T09:27:24.159Z,99996.16
2019-02-22T09:29:31.494Z,99987.50
2019-02-22T09:31:38.823Z,99981.25
2019-02-22T09:33:45.862Z,99971.37
2019-02-22T09:35:53.235Z,99964.08
2019-02-22T09:38:00.456Z,99957.44
2019-02-22T09:40:08.169Z,99955.70
2019-02-22T09:42:15.332Z,99953.30
2019-02-22T09:44:22.570Z,99964.61
2019-02-22T09:46:29.984Z,99957.15
2019-02-22T09:48:38.275Z,99954.13
2019-02-22T09:50:45.492Z,99964.30
2019-02-22T09:52:53.352Z,99959.96
2019-02-22T09:55:00.631Z,99955.63
2019-02-22T09:57:09.255Z,99948.36
2019-02-22T09:59:16.584Z,99954.06
2019-02-22T10:01:23.923Z,99960.25
2019-02-22T10:03:31.114Z,99964.20
2019-02-22T10:05:39.391Z,99962.77
2019-02-22T10:07:46.467Z,99967.62
2019-02-22T10:09:53.752Z,99966.48
2019-02-22T10:12:01.043Z,99965.86
2019-02-22T10:14:09.076Z,99972.03
2019-02-22T10:16:16.451Z,99977.11
2019-02-22T10:18:23.664Z,99987.85
2019-02-22T10:20:30.932Z,99995.66
2019-02-22T10:22:39.139Z,99984.00
2019-02-22T10:24:46.243Z,99976.81
2019-02-22T10:26:53.521Z,99973.83
2019-02-22T10:29:00.875Z,99963.23
2019-02-22T10:31:08.273Z,99973.72
2019-02-22T10:33:15.762Z,99978.33
2019-02-22T10:35:23.241Z,99983.48
2019-02-22T10:37:30.362Z,99987.13
2019-02-22T10:39:37.641Z,100024.90
2019-02-22T10:41:44.940Z,100053.64
2019-02-22T10:43:52.183Z,100059.32
2019-02-22T10:45:59.470Z,100075.50
2019-02-22T10:48:06.684Z,100075.36
2019-02-22T10:50:15.666Z,100074.27
2019-02-22T10:52:22.735Z,100071.59
2019-02-22T10:54:33.065Z,100072.53
2019-02-22T10:56:39.734Z,100062.34
2019-02-22T10:58:47.028Z,100054.63
2019-02-22T11:00:54.179Z,100057.03
2019-02-22T11:03:01.989Z,100057.24
2019-02-22T11:05:09.175Z,100048.40
2019-02-22T11:07:16.539Z,100044.09
2019-02-22T11:09:23.848Z,100034.70
2019-02-22T11:11:31.001Z,100030.05
2019-02-22T11:13:38.905Z,100028.73
2019-02-22T11:15:47.149Z,100042.62
2019-02-22T11:17:54.391Z,100041.02
2019-02-22T11:20:01.335Z,100042.05
2019-02-22T11:22:09.247Z,100038.23
2019-02-22T11:24:17.165Z,100030.65
2019-02-22T11:26:24.344Z,100030.70
2019-02-22T11:28:31.804Z,100017.05
2019-02-22T11:30:40.062Z,100006.34
2019-02-22T11:32:47.379Z,100022.36
2019-02-22T11:34:55.411Z,100033.03
2019-02-22T11:37:03.280Z,100054.27
2019-02-22T11:39:10.899Z,100045.13
2019-02-22T11:41:18.034Z,100038.94
2019-02-22T11:43:25.979Z,100046.99
2019-02-22T11:45:33.189Z,100051.13
2019-02-22T11:47:41.444Z,100043.08
2019-02-22T11:49:48.552Z,100036.70
2019-02-22T11:51:57.247Z,100037.77
2019-02-22T11:54:04.531Z,100027.41
2019-02-22T11:56:11.658Z,100022.14
2019-02-22T11:58:19.660Z,100026.13
2019-02-22T12:00:27.710Z,100045.77
2019-02-22T12:02:35.024Z,100044.17
2019-02-22T12:04:42.427Z,100038.32
2019-02-22T12:06:49.700Z,100032.45
2019-02-22T12:08:57.166Z,100036.56
2019-02-22T12:11:04.387Z,100045.01
2019-02-22T12:13:11.602Z,100041.66
2019-02-22T12:15:18.968Z,100030.56
2019-02-22T12:17:26.753Z,100022.27
2019-02-22T12:19:34.023Z,100029.81
2019-02-22T12:21:41.239Z,100033.43
2019-02-22T12:23:49.381Z,100032.12
2019-02-22T12:25:56.600Z,100035.34
2019-02-22T12:28:03.987Z,100032.22
2019-02-22T12:30:13.360Z,100022.66
2019-02-22T12:32:20.769Z,100020.05
2019-02-22T12:34:27.850Z,100030.03
2019-02-22T12:36:35.130Z,100034.48
2019-02-22T12:38:42.520Z,100037.05
2019-02-22T12:40:49.443Z,100031.86
2019-02-22T12:42:56.912Z,100033.27
2019-02-22T12:45:04.075Z,100027.53
2019-02-22T12:47:11.304Z,100035.03
2019-02-22T12:49:18.477Z,100023.73
2019-02-22T12:51:25.996Z,100024.84
2019-02-22T12:53:33.339Z,100024.66
2019-02-22T12:55:40.705Z,100023.11
2019-02-22T12:57:47.960Z,100023.97
2019-02-22T12:59:55.435Z,100018.59
2019-02-22T13:02:02.569Z,100017.56
2019-02-22T13:04:10.070Z,100014.94
2019-02-22T13:06:17.566Z,100005.38
2019-02-22T13:08:24.740Z,99998.83
2019-02-22T13:10:32.055Z,100004.16
2019-02-22T13:12:39.226Z,100012.99
2019-02-22T13:14:46.538Z,100018.64
2019-02-22T13:16:53.805Z,100009.41
2019-02-22T13:19:01.521Z,100011.33
2019-02-22T13:21:08.879Z,100013.52
2019-02-22T13:23:16.205Z,100021.73
2019-02-22T13:25:23.352Z,100018.81
2019-02-22T13:27:30.800Z,100022.44
2019-02-22T13:29:37.969Z,100019.82
2019-02-22T13:31:45.331Z,100014.49
2019-02-22T13:33:52.507Z,100024.09
2019-02-22T13:36:00.855Z,100032.02
2019-02-22T13:38:09.683Z,100031.19
2019-02-22T13:40:17.199Z,100028.36
2019-02-22T13:42:24.693Z,100029.38
2019-02-22T13:44:39.751Z,100025.20
2019-02-22T13:46:47.119Z,100026.30
2019-02-22T13:48:54.432Z,100021.23
2019-02-22T13:51:01.963Z,100019.40
2019-02-22T13:53:09.345Z,100016.11
2019-02-22T13:55:16.716Z,100026.78
2019-02-22T13:57:23.793Z,100039.98
2019-02-22T13:59:31.299Z,100048.16
2019-02-22T14:01:38.276Z,100049.13
2019-02-22T14:03:46.016Z,100054.60
2019-02-22T14:05:53.561Z,100039.11
2019-02-22T14:08:01.637Z,100041.19
2019-02-22T14:10:09.151Z,100044.45
2019-02-22T14:13:42.538Z,100054.85
2019-02-22T14:14:42.671Z,100051.05
2019-02-22T14:17:27.244Z,100052.30
2019-02-22T14:19:45.644Z,100059.58
2019-02-22T14:22:06.955Z,100072.25
2019-02-22T14:24:30.406Z,100074.67
2019-02-22T14:26:43.663Z,100083.20
2019-02-22T14:29:02.571Z,100076.95
2019-02-22T14:31:18.271Z,100066.67
2019-02-22T14:33:34.385Z,100055.84
2019-02-22T14:35:41.448Z,100056.09
2019-02-22T14:38:05.659Z,100046.05
2019-02-22T14:40:28.015Z,100044.95
2019-02-22T14:42:51.094Z,100052.73
2019-02-22T14:45:01.158Z,100046.98
2019-02-22T14:47:21.484Z,100042.66
2019-02-22T14:49:56.633Z,100036.40
2019-02-22T14:52:18.103Z,100039.81
2019-02-22T14:54:35.627Z,100040.00
2019-02-22T14:59:05.389Z,100012.31
2019-02-22T15:01:13.092Z,100002.59
2019-02-22T15:03:31.150Z,100016.58
2019-02-22T15:06:13.350Z,100012.45
2019-02-22T15:08:25.331Z,100031.05
2019-02-22T15:10:45.568Z,100049.73
2019-02-22T15:13:01.833Z,100049.26
2019-02-22T15:15:10.218Z,100056.16
2019-02-22T15:17:39.389Z,100058.81
2019-02-22T15:19:46.649Z,100059.31
2019-02-22T15:21:54.775Z,100051.09
2019-02-22T15:24:17.531Z,100049.63
2019-02-22T15:26:23.272Z,100059.49
2019-02-22T15:28:30.472Z,100069.08
2019-02-22T15:30:41.581Z,100074.87
2019-02-22T15:32:49.391Z,100069.45
2019-02-22T15:34:56.709Z,100068.48
2019-02-22T15:37:11.719Z,100071.80
2019-02-22T15:39:30.356Z,100070.81
2019-02-22T15:41:37.454Z,100076.70
2019-02-22T15:43:44.790Z,100086.88
2019-02-22T15:45:52.418Z,100087.89
2019-02-22T15:47:59.640Z,100092.84
2019-02-22T15:50:07.230Z,100090.86
2019-02-22T15:52:14.455Z,100098.75
2019-02-22T15:54:21.824Z,100100.08
2019-02-22T15:56:35.400Z,100108.41
2019-02-22T15:58:43.435Z,100094.62
2019-02-22T16:00:50.945Z,100082.39
2019-02-22T16:02:58.481Z,100090.44
2019-02-22T16:05:15.921Z,100090.30
2019-02-22T16:07:54.903Z,100090.89
2019-02-22T16:09:59.957Z,100091.37
2019-02-22T16:12:07.177Z,100094.92
2019-02-22T16:14:14.582Z,100093.14
2019-02-22T16:16:23.523Z,100086.73
2019-02-22T16:18:31.503Z,100083.59
2019-02-22T16:20:38.856Z,100074.82
2019-02-22T16:22:46.771Z,100081.30
2019-02-22T16:24:54.052Z,100085.69
2019-02-22T16:27:04.565Z,100093.58
2019-02-22T16:29:11.992Z,100098.17
2019-02-22T16:31:20.210Z,100104.96
2019-02-22T16:33:27.467Z,100119.48
2019-02-22T16:35:34.913Z,100116.76
2019-02-22T16:37:42.304Z,100121.77
2019-02-22T16:39:55.619Z,100122.09
2019-02-22T16:42:16.495Z,100114.84
2019-02-22T16:44:24.121Z,100115.40
2019-02-22T16:46:35.062Z,100104.55
2019-02-22T16:48:41.320Z,100108.94
2019-02-22T16:50:48.585Z,100103.39
2019-02-22T16:52:56.252Z,100108.86
2019-02-22T16:55:03.643Z,100113.88
2019-02-22T16:57:10.983Z,100107.06
2019-02-22T16:59:18.265Z,100102.64
2019-02-22T17:01:25.996Z,100099.48
2019-02-22T17:03:33.808Z,100101.68
2019-02-22T17:05:41.328Z,100087.02
2019-02-22T17:07:48.712Z,100077.20
2019-02-22T17:09:55.807Z,100077.93
2019-02-22T17:12:06.372Z,100083.85
2019-02-22T17:14:30.690Z,100080.92
2019-02-22T17:16:45.577Z,100076.54
2019-02-22T17:18:48.410Z,100068.59
2019-02-22T17:20:55.435Z,100061.70
2019-02-22T17:23:02.619Z,100067.45
2019-02-22T17:25:11.576Z,100073.72
2019-02-22T17:27:18.849Z,100064.42
2019-02-22T17:29:26.513Z,100060.23
2019-02-22T17:31:33.756Z,100019.47
2019-02-22T17:33:41.525Z,100065.33
2019-02-22T17:35:48.787Z,100060.66
2019-02-22T17:37:56.191Z,100060.84
2019-02-22T17:40:03.475Z,100050.49
2019-02-22T17:42:10.920Z,100043.28
2019-02-22T17:44:19.781Z,100033.67
2019-02-22T17:46:27.089Z,100028.87
2019-02-22T17:48:35.182Z,100033.05
2019-02-22T17:50:57.053Z,100024.16
2019-02-22T17:55:29.591Z,100029.95
2019-02-22T17:57:36.921Z,100029.91
2019-02-22T17:59:48.587Z,100035.20
2019-02-22T18:01:56.993Z,100026.23
2019-02-22T18:04:05.281Z,100025.56
2019-02-22T18:06:12.564Z,100015.54
2019-02-22T18:08:20.025Z,100015.02
2019-02-22T18:10:27.136Z,100009.09
2019-02-22T18:12:34.292Z,100005.86
2019-02-22T18:14:41.534Z,100004.22
2019-02-22T18:16:48.771Z,99994.70
2019-02-22T18:18:55.922Z,99982.17
2019-02-22T18:21:03.512Z,99979.03
2019-02-22T18:23:10.822Z,99972.06
2019-02-22T18:25:18.585Z,99975.09
2019-02-22T18:27:26.163Z,99974.44
2019-02-22T18:29:35.684Z,99968.48
2019-02-22T18:31:44.384Z,99964.34
2019-02-22T18:33:51.881Z,99957.89
2019-02-22T18:35:59.499Z,99960.59
2019-02-22T18:38:06.844Z,99964.16
2019-02-22T18:40:15.237Z,99965.09
2019-02-22T18:42:22.626Z,99959.66
2019-02-22T18:44:30.080Z,99961.94
2019-02-22T18:46:37.409Z,99958.03
2019-02-22T18:48:44.445Z,99949.69
2019-02-22T18:50:51.761Z,99952.06
2019-02-22T18:52:59.568Z,99945.00
2019-02-22T18:55:07.731Z,99948.77
2019-02-22T18:57:14.988Z,99938.11
2019-02-22T18:59:22.271Z,99933.94
2019-02-22T19:01:29.540Z,99935.09
2019-02-22T19:03:37.071Z,99928.94
2019-02-22T19:05:44.246Z,99932.06
2019-02-22T19:07:51.468Z,99917.20
2019-02-22T19:09:58.946Z,99915.31
2019-02-22T19:12:06.429Z,99909.48
2019-02-22T19:14:13.921Z,99904.13
2019-02-22T19:16:20.836Z,99904.16
2019-02-22T19:18:30.300Z,99910.42
2019-02-22T19:20:37.505Z,99904.57
2019-02-22T19:22:44.789Z,99904.98
2019-02-22T19:24:52.453Z,99907.08
2019-02-22T19:27:00.054Z,99902.28
2019-02-22T19:29:07.793Z,99891.30
2019-02-22T19:31:15.336Z,99899.44
2019-02-22T19:33:22.457Z,99897.69
2019-02-22T19:35:29.736Z,99897.98
2019-02-22T19:37:41.780Z,99897.06
2019-02-22T19:39:49.602Z,99897.88
2019-02-22T19:41:56.792Z,99899.78
2019-02-22T19:44:04.142Z,99899.24
2019-02-22T19:46:12.067Z,99897.27
2019-02-22T19:48:19.289Z,99890.87
2019-02-22T19:50:27.860Z,99889.94
2019-02-22T19:52:35.178Z,99888.80
2019-02-22T19:54:44.759Z,99883.24
2019-02-22T19:56:51.128Z,99884.81
2019-02-22T19:58:59.194Z,99877.92
2019-02-22T20:01:06.812Z,99878.23
2019-02-22T20:03:14.143Z,99881.18
2019-02-22T20:05:21.299Z,99879.82
2019-02-22T20:07:29.007Z,99880.84
2019-02-22T20:09:36.329Z,99871.77
2019-02-22T20:11:43.453Z,99866.86
2019-02-22T20:13:51.153Z,99877.08
2019-02-22T20:15:58.378Z,99877.51
2019-02-22T20:18:08.257Z,99874.58
2019-02-22T20:20:16.493Z,99878.97
2019-02-22T20:22:24.808Z,99867.05
2019-02-22T20:24:32.025Z,99869.56
2019-02-22T20:26:39.174Z,99864.40
2019-02-22T20:28:46.557Z,99858.63
2019-02-22T20:30:53.872Z,99855.23
2019-02-22T20:33:01.140Z,99846.31
2019-02-22T20:35:09.755Z,99849.20
2019-02-22T20:37:17.131Z,99849.33
2019-02-22T20:39:25.971Z,99851.00
2019-02-22T20:41:33.097Z,99846.49
2019-02-22T20:43:40.324Z,99842.03
2019-02-22T20:45:48.089Z,99838.72
2019-02-22T20:48:04.806Z,99842.48
2019-02-22T20:50:07.794Z,99840.53
2019-02-22T20:52:15.277Z,99838.04
2019-02-22T20:54:30.032Z,99835.23
2019-02-22T20:56:37.347Z,99844.94
2019-02-22T20:59:01.014Z,99845.50
2019-02-22T21:01:14.862Z,99840.99
2019-02-22T21:03:21.063Z,99838.31
2019-02-22T21:05:28.816Z,99840.28
2019-02-22T21:10:19.411Z,99838.74
2019-02-22T21:12:30.868Z,99837.29
2019-02-22T21:14:39.983Z,99837.16
2019-02-22T21:17:14.593Z,99833.30
2019-02-22T21:19:22.107Z,99835.83
2019-02-22T21:21:33.198Z,99830.91
2019-02-22T21:23:57.308Z,99834.78
2019-02-22T21:26:24.659Z,99832.48
2019-02-22T21:28:48.579Z,99831.44
2019-02-22T21:30:56.153Z,99828.94
2019-02-22T21:33:03.406Z,99830.69
2019-02-22T21:35:10.531Z,99831.00
2019-02-22T21:37:31.083Z,99826.22
2019-02-22T21:39:45.604Z,99829.20
2019-02-22T21:42:39.072Z,99835.05
2019-02-22T21:44:51.384Z,99840.08
2019-02-22T21:46:58.618Z,99836.19
2019-02-22T21:49:05.654Z,99828.68
2019-02-22T21:51:14.740Z,99828.89
2019-02-22T21:53:28.516Z,99827.66
2019-02-22T21:55:36.405Z,99827.13
2019-02-22T22:00:20.400Z,99820.36
2019-02-22T22:02:32.729Z,99818.59
2019-02-22T22:04:51.760Z,99821.01
2019-02-22T22:07:05.467Z,99818.61
2019-02-22T22:09:53.442Z,99813.98
2019-02-22T22:11:37.825Z,99821.88
2019-02-22T22:13:49.880Z,99830.77
2019-02-22T22:16:06.304Z,99824.72
2019-02-22T22:18:14.681Z,99835.59
2019-02-22T22:20:46.228Z,99840.93
2019-02-22T22:22:58.765Z,99838.10
2019-02-22T22:25:06.042Z,99838.31
2019-02-22T22:27:18.462Z,99833.91
2019-02-22T22:29:37.764Z,99830.67
2019-02-22T22:31:45.053Z,99838.08
2019-02-22T22:34:17.500Z,99840.26
2019-02-22T22:36:39.300Z,99829.61
2019-02-22T22:38:54.887Z,99829.78
2019-02-22T22:41:02.138Z,99825.42
2019-02-22T22:43:13.002Z,99833.25
2019-02-22T22:45:20.228Z,99832.19
2019-02-22T22:47:43.538Z,99828.85
2019-02-22T22:50:03.246Z,99827.16
2019-02-22T22:52:25.498Z,99829.48
2019-02-22T22:54:51.087Z,99831.75
2019-02-22T22:57:07.365Z,99833.94
2019-02-22T22:59:41.853Z,99836.68
2019-02-22T23:01:47.187Z,99833.13
2019-02-22T23:03:54.732Z,99842.11
2019-02-22T23:06:02.242Z,99843.25
2019-02-22T23:08:46.794Z,99838.06
2019-02-22T23:11:11.799Z,99837.36
2019-02-22T23:13:19.510Z,99830.17
2019-02-22T23:15:27.037Z,99828.80
2019-02-22T23:17:43.389Z,99840.81
2019-02-22T23:19:55.158Z,99826.48
2019-02-22T23:22:02.421Z,99836.11
2019-02-22T23:24:10.524Z,99839.58
2019-02-22T23:26:17.753Z,99834.23
2019-02-22T23:28:25.108Z,99831.20
2019-02-22T23:30:32.951Z,99823.69
2019-02-22T23:32:40.874Z,99817.33
2019-02-22T23:34:53.700Z,99818.46
2019-02-22T23:37:01.683Z,99815.42
2019-02-22T23:39:09.969Z,99802.39
2019-02-22T23:41:18.521Z,99798.41
2019-02-22T23:43:26.546Z,99798.09
2019-02-22T23:45:33.931Z,99801.23
2019-02-22T23:47:50.205Z,99789.84
2019-02-22T23:50:09.326Z,99785.87
2019-02-22T23:52:24.784Z,99792.03
2019-02-22T23:54:54.206Z,99780.86
2019-02-22T23:57:17.400Z,99778.35
2019-02-22T23:59:27.828Z,99774.91
